New Hope, Mississippi
Current Conditions -  °F | °C
As of 5:35 AM on Tuesday 21 Oct 2014 (Local Time) from KGTR Reporting Station
Clear Clear  
Wind Chill: 48°   Ceiling: Unl
Heat Index: 48°   Visibility: 4mi
Dew Point: 45°   Wind: 3mph
Humidity: 87%   Direction: 350°N
Pressure: 30.04"   Gusts: NA
Location:  33.455°N, 88.5512°W
Report Text: KGTR 211035Z 35003KT 4SM CLR 09/07 A3004 RMK AO1
Loading
Personal Weather Stations






























Interactive Weather Map New forecast layout! Learn more

10-Day Weather Forecast

Advertisements
Track Severe Weather on mobile